AirNav   Air Wisconsin Up To $57,000 Bonus
 
 1385 users online  

T78 Liberty Municipal Airport
Liberty, Texas, USA

GOING TO LIBERTY?


FAA INFORMATION EFFECTIVE 20 JUNE 2019

Location

FAA Identifier: T78
Lat/Long: 30-04-40.1000N / 094-41-54.8000W
30-04.668333N / 094-41.913333W
30.0778056 / -94.6985556
(estimated)
Elevation: 69.5 ft. / 21.2 m (surveyed)
Variation: 05E (1995)
From city: 6 miles NE of LIBERTY, TX
Time zone: UTC -5 (UTC -6 during Standard Time)
Zip code: 77575

Airport Operations

Airport use: Open to the public
Activation date: 08/1959
Control tower: no
ARTCC: HOUSTON CENTER
FSS: MONTGOMERY COUNTY FLIGHT SERVICE STATION
FOR FP FILING CALL CXO FSS 1-800-992-7433.
NOTAMs facility: CXO (NOTAM-D service available)
Attendance: 0800-1800
Wind indicator: lighted
Segmented circle: yes
Lights: ACTVT MIRL RY 16/34 - CTAF.
Beacon: white-green (lighted land airport)
Operates sunset to sunrise.

Airport Communications

CTAF: 122.9
HOUSTON APPROACH: 119.7
HOUSTON DEPARTURE: 119.7
BORRN DP: 119.7
DREMR DP: 119.7
INDIE DP: 119.7
KARRR DP: 119.7
LURIC DP: 119.7
MMALT DP: 119.7
STRYA DP: 119.7
STYCK DP: 119.7
WATFO DP: 119.7
WYLSN DP: 119.7

Nearby radio navigation aids

VOR radial/distance  VOR name  Freq  Var
DASr197/7.3DAISETTA VORTAC116.9005E
MHFr358/32.0TRINITY VOR/DME113.6007E
IAHr073/34.4HUMBLE VORTAC116.6005E
BPTr276/36.3BEAUMONT VOR/DME114.5007E
HUBr045/39.3HOBBY VOR/DME117.1005E

 
NDB name  Hdg/Dist  Freq  Var  ID
GOODHUE264/25.336807EGDE --. -.. .
HARDIN COUNTY232/27.552404EHRD .... .-. -..

Airport Services

Fuel available: 100LL JET-A
24 HR SELF-SERVICE FUEL.
Parking: tiedowns
Airframe service: MAJOR
Powerplant service: MAJOR
Bottled oxygen: NONE
Bulk oxygen: NONE

Runway Information

Runway 16/34

Dimensions: 3801 x 75 ft. / 1159 x 23 m
Surface: asphalt, in fair condition
Weight bearing capacity: 
Single wheel: 10.0
Runway edge lights: medium intensity
RUNWAY 16  RUNWAY 34
Latitude: 30-04.971517N30-04.363658N
Longitude: 094-42.001210W094-41.824053W
Elevation: 68.9 ft.68.6 ft.
Traffic pattern: leftleft
Runway heading: 161 magnetic, 166 true341 magnetic, 346 true
Markings: nonprecision, in fair conditionnonprecision, in fair condition
Visual slope indicator: 2-light PAPI on left (3.00 degrees glide path)
Touchdown point: yes, no lightsyes, no lights
Obstructions: 51 ft. trees, 200 ft. from runway, 215 ft. right of centerline
+57 FT TREES 215 FT RT OF RY CENTERLINE FM THLD TO 200 FT.
67 ft. trees, 1248 ft. from runway, 15:1 slope to clear

Airport Ownership and Management from official FAA records

Ownership: Publicly-owned
Owner: CITY OF LIBERTY
1829 SAM HOUSTON
LIBERTY, TX 77575
Phone 936-587-4150
Manager: PHIL ROBERTSON
1829 SAM HOUSTON
LIBERTY, TX 77575
Phone (281) 660-2337

Airport Operational Statistics

Aircraft based on the field: 26
Single engine airplanes: 23
Multi engine airplanes: 1
Ultralights: 2
    
Aircraft operations: avg 120/week *
58% transient general aviation
41% local general aviation
<1% military
* for 12-month period ending 14 November 2016

Additional Remarks

FOR CD CTC HOUSTON APCH AT 281-443-5844 TO CNL IFR CALL 281-443-5888.

Instrument Procedures

NOTE: All procedures below are presented as PDF files. If you need a reader for these files, you should download the free Adobe Reader.

NOT FOR NAVIGATION. Please procure official charts for flight.
FAA instrument procedures published for use from 20 June 2019 at 0901Z to 19 July 2019 at 0900Z.

 
STARs - Standard Terminal Arrivals
HUDZY THREE   2 pages: [1] [2] (327KB)
OHIIO FOUR   download (294KB)
RIICE EIGHT   2 pages: [1] [2] (550KB)
WHAEL THREE   download (159KB)
 
IAPs - Instrument Approach Procedures
RNAV (GPS) RWY 16 **CHANGED**   download (140KB)
VOR-A **CHANGED**   download (123KB)
 
Departure Procedures
BLTWY SIX (RNAV)   download (121KB)
BORRN FOUR (RNAV)   2 pages: [1] [2] (241KB)
HOODO SIX (RNAV)   download (172KB)
INDIE SEVEN (RNAV)   download (146KB)
KARRR FIVE (RNAV)   2 pages: [1] [2] (192KB)
LURIC SEVEN (RNAV)   download (166KB)
MMALT FIVE (RNAV)   download (182KB)
PALACIOS ONE **NEW**   2 pages: [1] [2] (292KB)
STRYA SEVEN (RNAV)   download (153KB)
STYCK SEVEN (RNAV)   download (141KB)
WATFO FIVE (RNAV)   download (130KB)
WYLSN SEVEN (RNAV)   download (133KB)
NOTE: Special Take-Off Minimums/Departure Procedures apply   download

Other nearby airports with instrument procedures:

T00 - Chambers County Airport (19 nm S)
54T - RWJ Airpark (20 nm S)
KHPY - Baytown Airport (22 nm SW)
6R3 - Cleveland Municipal Airport (23 nm NW)
KBMT - Beaumont Municipal Airport (25 nm E)
 
Loc | Ops | Rwys | IFR | FBO | Links
Com | Nav | Svcs | Stats | Notes
Area around T78 (Liberty Municipal Airport)
 
Road maps at: MapQuest Bing Google
 
Aerial photo
WARNING: Photo may not be current or correct
Aerial photo of T78 (Liberty Municipal Airport)
Photo by David Lawrence flying a 78 Bellanca/17-30A
Photo taken 08-Nov-2014
looking north.

Do you have a better or more recent aerial photo of Liberty Municipal Airport that you would like to share? If so, please send us your photo.

 
Sectional chart

 
Airport diagram
CAUTION: Diagram may not be current
Diagram of T78 (Liberty Municipal Airport)
 
Airport distance calculator
Flying to Liberty Municipal Airport? Find the distance to fly.

From to T78

Sunrise and sunset
Times for 16-Jul-2019
 Local
(UTC-5)
 Zulu
(UTC)
Morning civil twilight06:0211:02
Sunrise06:2911:29
Sunset20:2001:20
Evening civil twilight20:4701:47

Current date and time
Zulu (UTC)  16-Jul-2019 21:51:14
Local (UTC-5)  16-Jul-2019 16:51:14
 
METAR
K6R3 
23nm NW 
162135Z AUTO 18011G17KT 7SM SCT004 SCT007 BKN031 33/26 A3000 RMK AO2 LTG DSNT W T03310262
KBMT 
25nm E 
162135Z AUTO 19010KT 10SM SCT034 33/24 RMK AO2 T03290237
KIAH 
35nm W 
162053Z 16013KT 10SM FEW039 SCT060 BKN250 34/24 A2999 RMK AO2 SLP154 T03390239 56013
KBPT 
35nm E 
162053Z 18012G18KT 10SM BKN030 33/25 A3003 RMK AO2 SLP168 T03280250 56007
KEFD 
38nm SW 
162050Z 15010G17KT 10SM SCT040 BKN250 32/23 A2998
KHOU 
40nm SW 
162053Z 17011KT 10SM BKN036 BKN250 33/24 A3000 RMK AO2 SLP162 T03330239 58009
KCXO 
41nm NW 
162124Z 24004KT 10SM VCTS -RA OVC050 33/24 A2999 RMK AO2 LTG DSNT SW RAB24 P0000 T03280239
KDWH 
44nm W 
162138Z 16007G18KT 130V190 10SM BKN050 BKN060 33/23 A2998 RMK AO2 LTG DSNT N T03280228
KLVJ 
44nm SW 
162053Z AUTO 16010G18KT 10SM SCT035 SCT045 33/24 A3002 RMK AO2 SLP165 T03280239 58012
TAF
KIAH 
35nm W 
161744Z 1618/1724 20009KT P6SM SCT040 SCT250 FM162000 18010KT P6SM VCSH BKN045 FM162200 17010KT P6SM SCT045 FM170200 16008KT P6SM SCT250 FM170800 VRB03KT P6SM BKN015 FM171500 17005KT P6SM SCT030
KBPT 
35nm E 
161734Z 1618/1718 19012KT P6SM VCSH SCT030 BKN040 TEMPO 1618/1620 BKN030 FM170200 17005KT P6SM FEW025 SCT250 FM171400 18008KT P6SM SCT025 SCT060
KEFD 
38nm SW 
162000Z 1620/1802 17009KT 9999 SCT040 QNH2996INS BECMG 1707/1708 16006KT 9999 BKN010 QNH2999INS BECMG 1711/1712 17006KT 9999 SCT020 QNH3000INS BECMG 1717/1718 16012KT 9999 SKC QNH2996INS TX33/1720Z TN27/1708Z
KHOU 
40nm SW 
161744Z 1618/1718 18010KT P6SM SCT035 SCT250 FM161930 17010KT P6SM SCT045 SCT250 FM162300 17009KT P6SM FEW050 SCT250 FM170900 16004KT P6SM SCT020 BKN250 FM171400 17010KT P6SM SCT035
KCXO 
41nm NW 
161744Z 1618/1718 22010KT P6SM BKN035 FM161900 18011KT P6SM VCSH SCT040 FM170000 16008KT P6SM SCT040 FM170900 17004KT P6SM BKN020 FM171500 18009KT P6SM SCT030
NOTAMs
Click for the latest NOTAMs
NOTAMs are issued by the DoD/FAA and will open in a separate window not controlled by AirNav.

 

 
 

FBO, Fuel Providers, and Aircraft Ground Support

  
 Business Name 
 
 Contact 
 
 Services / Description 
 
Fuel Prices
 
Comments
  
Liberty Municipal Airport 281-660-2337
936-336-3684
[web site]
Aviation fuel, Aircraft parking (ramp or tiedown), Restrooms
More info and photos of Liberty Municipal Airport
independent
100LL Jet A
SS $3.80 $2.95 
 Updated 11-Jun-2019
 
   3 read write
SS=Self service
Update Fuel Prices
 

Would you like to see your business listed on this page?

 If your business provides an interesting product or service to pilots, flight crews, aircraft, or users of the Liberty Municipal Airport, you should consider listing it here.  To start the listing process, click on the button below
 
Add a business
 

Other Pages about Liberty Municipal Airport

www.cityofliberty.org/...
 
Update a link
 
Copyright © AirNav, LLC. All rights reserved. Privacy Policy  Contact